sensor_id;sensor_type;location;lat;lon;timestamp;P1;durP1;ratioP1;P2;durP2;ratioP2
12878;SDS011;20617;49.476;10.986;2022-11-20T00:01:38;23.02;;;16.98;;
12878;SDS011;20617;49.476;10.986;2022-11-20T00:03:44;23.20;;;17.00;;
12878;SDS011;20617;49.476;10.986;2022-11-20T00:05:49;24.38;;;17.52;;
12878;SDS011;20617;49.476;10.986;2022-11-20T00:07:57;21.45;;;16.90;;
12878;SDS011;20617;49.476;10.986;2022-11-20T00:10:02;23.10;;;16.63;;
12878;SDS011;20617;49.476;10.986;2022-11-20T00:12:07;21.98;;;16.70;;
12878;SDS011;20617;49.476;10.986;2022-11-20T00:14:12;22.33;;;16.80;;
12878;SDS011;20617;49.476;10.986;2022-11-20T00:16:20;22.77;;;16.90;;
12878;SDS011;20617;49.476;10.986;2022-11-20T00:18:26;24.33;;;18.90;;
12878;SDS011;20617;49.476;10.986;2022-11-20T00:20:32;23.05;;;17.33;;
12878;SDS011;20617;49.476;10.986;2022-11-20T00:22:37;20.98;;;15.70;;
12878;SDS011;20617;49.476;10.986;2022-11-20T00:24:44;21.55;;;15.25;;
12878;SDS011;20617;49.476;10.986;2022-11-20T00:26:49;24.25;;;16.83;;
12878;SDS011;20617;49.476;10.986;2022-11-20T00:28:54;24.88;;;17.05;;
12878;SDS011;20617;49.476;10.986;2022-11-20T00:31:01;23.40;;;16.02;;
12878;SDS011;20617;49.476;10.986;2022-11-20T00:33:07;23.08;;;16.80;;
12878;SDS011;20617;49.476;10.986;2022-11-20T00:35:12;22.55;;;17.30;;
12878;SDS011;20617;49.476;10.986;2022-11-20T00:37:19;22.38;;;16.52;;
12878;SDS011;20617;49.476;10.986;2022-11-20T00:39:26;21.70;;;16.48;;
12878;SDS011;20617;49.476;10.986;2022-11-20T00:41:33;22.42;;;17.38;;
12878;SDS011;20617;49.476;10.986;2022-11-20T00:43:38;24.20;;;16.77;;
12878;SDS011;20617;49.476;10.986;2022-11-20T00:45:43;26.67;;;19.13;;
12878;SDS011;20617;49.476;10.986;2022-11-20T00:47:48;23.00;;;17.25;;
12878;SDS011;20617;49.476;10.986;2022-11-20T00:49:53;23.30;;;17.40;;
12878;SDS011;20617;49.476;10.986;2022-11-20T00:51:57;23.48;;;16.63;;
12878;SDS011;20617;49.476;10.986;2022-11-20T00:54:02;22.02;;;16.98;;
12878;SDS011;20617;49.476;10.986;2022-11-20T00:56:09;23.95;;;17.00;;
12878;SDS011;20617;49.476;10.986;2022-11-20T00:58:18;24.25;;;17.65;;
12878;SDS011;20617;49.476;10.986;2022-11-20T01:00:22;25.02;;;18.67;;
12878;SDS011;20617;49.476;10.986;2022-11-20T01:02:27;23.33;;;17.50;;
12878;SDS011;20617;49.476;10.986;2022-11-20T01:04:32;23.77;;;17.60;;
12878;SDS011;20617;49.476;10.986;2022-11-20T01:06:37;23.67;;;16.50;;
12878;SDS011;20617;49.476;10.986;2022-11-20T01:08:43;24.70;;;16.90;;
12878;SDS011;20617;49.476;10.986;2022-11-20T01:10:49;22.90;;;17.15;;
12878;SDS011;20617;49.476;10.986;2022-11-20T01:12:54;23.77;;;18.90;;
12878;SDS011;20617;49.476;10.986;2022-11-20T01:15:13;23.58;;;17.58;;
12878;SDS011;20617;49.476;10.986;2022-11-20T01:17:18;21.58;;;16.67;;
12878;SDS011;20617;49.476;10.986;2022-11-20T01:19:23;25.73;;;16.92;;
12878;SDS011;20617;49.476;10.986;2022-11-20T01:21:29;24.02;;;16.83;;
12878;SDS011;20617;49.476;10.986;2022-11-20T01:23:36;26.40;;;20.08;;
12878;SDS011;20617;49.476;10.986;2022-11-20T01:25:42;26.08;;;17.63;;
12878;SDS011;20617;49.476;10.986;2022-11-20T01:27:47;23.52;;;18.27;;
12878;SDS011;20617;49.476;10.986;2022-11-20T01:29:52;24.17;;;18.17;;
12878;SDS011;20617;49.476;10.986;2022-11-20T01:32:04;23.10;;;18.88;;
12878;SDS011;20617;49.476;10.986;2022-11-20T01:34:09;23.80;;;17.80;;
12878;SDS011;20617;49.476;10.986;2022-11-20T01:36:16;20.92;;;16.40;;
12878;SDS011;20617;49.476;10.986;2022-11-20T01:38:22;23.00;;;17.02;;
12878;SDS011;20617;49.476;10.986;2022-11-20T01:40:27;28.67;;;18.55;;
12878;SDS011;20617;49.476;10.986;2022-11-20T01:42:32;27.55;;;20.20;;
12878;SDS011;20617;49.476;10.986;2022-11-20T01:44:51;30.10;;;20.10;;
12878;SDS011;20617;49.476;10.986;2022-11-20T01:46:58;34.80;;;22.50;;
12878;SDS011;20617;49.476;10.986;2022-11-20T01:49:11;35.83;;;23.63;;
12878;SDS011;20617;49.476;10.986;2022-11-20T01:51:24;44.60;;;25.63;;
12878;SDS011;20617;49.476;10.986;2022-11-20T01:53:34;42.65;;;25.23;;
12878;SDS011;20617;49.476;10.986;2022-11-20T01:55:41;36.40;;;25.02;;
12878;SDS011;20617;49.476;10.986;2022-11-20T01:57:50;33.40;;;22.48;;
12878;SDS011;20617;49.476;10.986;2022-11-20T01:59:57;44.50;;;25.88;;
12878;SDS011;20617;49.476;10.986;2022-11-20T02:02:12;34.35;;;23.17;;
12878;SDS011;20617;49.476;10.986;2022-11-20T02:04:21;35.13;;;22.90;;
12878;SDS011;20617;49.476;10.986;2022-11-20T02:06:28;33.33;;;22.08;;
12878;SDS011;20617;49.476;10.986;2022-11-20T02:08:37;31.10;;;21.25;;
12878;SDS011;20617;49.476;10.986;2022-11-20T02:10:45;31.70;;;21.83;;
12878;SDS011;20617;49.476;10.986;2022-11-20T02:12:50;32.60;;;23.33;;
12878;SDS011;20617;49.476;10.986;2022-11-20T02:15:08;31.20;;;22.10;;
12878;SDS011;20617;49.476;10.986;2022-11-20T02:17:13;33.38;;;22.95;;
12878;SDS011;20617;49.476;10.986;2022-11-20T02:19:22;31.40;;;21.80;;
12878;SDS011;20617;49.476;10.986;2022-11-20T02:21:33;32.60;;;24.40;;
12878;SDS011;20617;49.476;10.986;2022-11-20T02:23:54;30.08;;;21.33;;
12878;SDS011;20617;49.476;10.986;2022-11-20T02:26:04;30.77;;;23.15;;
12878;SDS011;20617;49.476;10.986;2022-11-20T02:28:13;29.75;;;20.70;;
12878;SDS011;20617;49.476;10.986;2022-11-20T02:30:19;31.88;;;22.70;;
12878;SDS011;20617;49.476;10.986;2022-11-20T02:34:30;28.33;;;21.08;;
12878;SDS011;20617;49.476;10.986;2022-11-20T02:36:35;30.10;;;20.42;;
12878;SDS011;20617;49.476;10.986;2022-11-20T02:38:43;30.42;;;21.67;;
12878;SDS011;20617;49.476;10.986;2022-11-20T02:40:50;33.25;;;22.17;;
12878;SDS011;20617;49.476;10.986;2022-11-20T02:42:56;26.73;;;17.98;;
12878;SDS011;20617;49.476;10.986;2022-11-20T02:45:01;26.48;;;19.73;;
12878;SDS011;20617;49.476;10.986;2022-11-20T02:47:06;29.65;;;21.58;;
12878;SDS011;20617;49.476;10.986;2022-11-20T02:49:11;30.33;;;20.17;;
12878;SDS011;20617;49.476;10.986;2022-11-20T02:51:18;25.77;;;19.02;;
12878;SDS011;20617;49.476;10.986;2022-11-20T02:53:22;29.17;;;20.55;;
12878;SDS011;20617;49.476;10.986;2022-11-20T02:55:27;29.25;;;20.33;;
12878;SDS011;20617;49.476;10.986;2022-11-20T02:57:35;26.58;;;20.30;;
12878;SDS011;20617;49.476;10.986;2022-11-20T02:59:39;28.35;;;20.13;;
12878;SDS011;20617;49.476;10.986;2022-11-20T03:01:44;30.02;;;21.35;;
12878;SDS011;20617;49.476;10.986;2022-11-20T03:03:49;29.13;;;21.63;;
12878;SDS011;20617;49.476;10.986;2022-11-20T03:05:58;28.92;;;20.63;;
12878;SDS011;20617;49.476;10.986;2022-11-20T03:08:03;27.10;;;19.73;;
12878;SDS011;20617;49.476;10.986;2022-11-20T03:12:13;28.65;;;20.77;;
12878;SDS011;20617;49.476;10.986;2022-11-20T03:14:20;26.95;;;18.92;;
12878;SDS011;20617;49.476;10.986;2022-11-20T03:16:25;30.88;;;21.13;;
12878;SDS011;20617;49.476;10.986;2022-11-20T03:18:30;29.13;;;19.95;;
12878;SDS011;20617;49.476;10.986;2022-11-20T03:20:35;29.58;;;21.48;;
12878;SDS011;20617;49.476;10.986;2022-11-20T03:22:40;28.42;;;20.92;;
12878;SDS011;20617;49.476;10.986;2022-11-20T03:24:45;30.17;;;20.10;;
12878;SDS011;20617;49.476;10.986;2022-11-20T03:26:49;34.58;;;22.92;;
12878;SDS011;20617;49.476;10.986;2022-11-20T03:28:55;28.88;;;19.80;;
12878;SDS011;20617;49.476;10.986;2022-11-20T03:31:07;25.10;;;18.88;;
12878;SDS011;20617;49.476;10.986;2022-11-20T03:33:13;28.88;;;19.70;;
12878;SDS011;20617;49.476;10.986;2022-11-20T03:35:18;25.60;;;18.13;;
12878;SDS011;20617;49.476;10.986;2022-11-20T03:37:23;26.58;;;18.63;;
12878;SDS011;20617;49.476;10.986;2022-11-20T03:39:28;27.20;;;19.10;;
12878;SDS011;20617;49.476;10.986;2022-11-20T03:41:35;28.40;;;20.50;;
12878;SDS011;20617;49.476;10.986;2022-11-20T03:43:41;28.38;;;19.77;;
12878;SDS011;20617;49.476;10.986;2022-11-20T03:45:51;25.95;;;19.38;;
12878;SDS011;20617;49.476;10.986;2022-11-20T03:47:59;27.25;;;19.20;;
12878;SDS011;20617;49.476;10.986;2022-11-20T03:50:04;26.98;;;19.30;;
12878;SDS011;20617;49.476;10.986;2022-11-20T03:52:10;28.30;;;19.42;;
12878;SDS011;20617;49.476;10.986;2022-11-20T03:54:14;26.48;;;19.85;;
12878;SDS011;20617;49.476;10.986;2022-11-20T03:56:20;26.90;;;19.65;;
12878;SDS011;20617;49.476;10.986;2022-11-20T03:58:27;26.83;;;20.23;;
12878;SDS011;20617;49.476;10.986;2022-11-20T04:00:32;26.13;;;18.42;;
12878;SDS011;20617;49.476;10.986;2022-11-20T04:02:37;25.55;;;18.67;;
12878;SDS011;20617;49.476;10.986;2022-11-20T04:04:44;25.17;;;17.98;;
12878;SDS011;20617;49.476;10.986;2022-11-20T04:06:49;25.55;;;18.70;;
12878;SDS011;20617;49.476;10.986;2022-11-20T04:08:54;24.67;;;18.42;;
12878;SDS011;20617;49.476;10.986;2022-11-20T04:13:17;28.45;;;19.70;;
12878;SDS011;20617;49.476;10.986;2022-11-20T04:15:22;24.50;;;16.38;;
12878;SDS011;20617;49.476;10.986;2022-11-20T04:17:26;29.40;;;20.08;;
12878;SDS011;20617;49.476;10.986;2022-11-20T04:19:31;27.80;;;20.58;;
12878;SDS011;20617;49.476;10.986;2022-11-20T04:21:38;28.95;;;19.90;;
12878;SDS011;20617;49.476;10.986;2022-11-20T04:23:43;23.70;;;17.75;;
12878;SDS011;20617;49.476;10.986;2022-11-20T04:25:48;24.05;;;17.95;;
12878;SDS011;20617;49.476;10.986;2022-11-20T04:27:53;21.58;;;16.48;;
12878;SDS011;20617;49.476;10.986;2022-11-20T04:29:59;23.52;;;16.33;;
12878;SDS011;20617;49.476;10.986;2022-11-20T04:32:03;23.58;;;16.75;;
12878;SDS011;20617;49.476;10.986;2022-11-20T04:34:10;22.23;;;17.00;;
12878;SDS011;20617;49.476;10.986;2022-11-20T04:36:16;23.80;;;16.88;;
12878;SDS011;20617;49.476;10.986;2022-11-20T04:38:25;21.80;;;16.45;;
12878;SDS011;20617;49.476;10.986;2022-11-20T04:40:32;22.13;;;17.00;;
12878;SDS011;20617;49.476;10.986;2022-11-20T04:42:37;26.25;;;18.80;;
12878;SDS011;20617;49.476;10.986;2022-11-20T04:44:42;24.48;;;17.52;;
12878;SDS011;20617;49.476;10.986;2022-11-20T04:46:47;28.88;;;19.33;;
12878;SDS011;20617;49.476;10.986;2022-11-20T04:48:51;25.65;;;18.35;;
12878;SDS011;20617;49.476;10.986;2022-11-20T04:53:01;30.50;;;19.60;;
12878;SDS011;20617;49.476;10.986;2022-11-20T04:55:09;24.65;;;18.38;;
12878;SDS011;20617;49.476;10.986;2022-11-20T04:57:15;24.52;;;18.05;;
12878;SDS011;20617;49.476;10.986;2022-11-20T04:59:19;24.90;;;17.50;;
12878;SDS011;20617;49.476;10.986;2022-11-20T05:01:25;22.13;;;17.92;;
12878;SDS011;20617;49.476;10.986;2022-11-20T05:03:30;26.08;;;18.48;;
12878;SDS011;20617;49.476;10.986;2022-11-20T05:05:41;23.65;;;17.17;;
12878;SDS011;20617;49.476;10.986;2022-11-20T05:07:46;24.45;;;17.98;;
12878;SDS011;20617;49.476;10.986;2022-11-20T05:09:51;23.20;;;16.85;;
12878;SDS011;20617;49.476;10.986;2022-11-20T05:11:58;24.02;;;17.70;;
12878;SDS011;20617;49.476;10.986;2022-11-20T05:14:03;27.17;;;18.83;;
12878;SDS011;20617;49.476;10.986;2022-11-20T05:16:08;26.02;;;19.98;;
12878;SDS011;20617;49.476;10.986;2022-11-20T05:18:15;31.20;;;22.17;;
12878;SDS011;20617;49.476;10.986;2022-11-20T05:20:19;27.85;;;19.30;;
12878;SDS011;20617;49.476;10.986;2022-11-20T05:22:24;28.48;;;21.23;;
12878;SDS011;20617;49.476;10.986;2022-11-20T05:24:29;24.80;;;18.08;;
12878;SDS011;20617;49.476;10.986;2022-11-20T05:26:34;25.58;;;19.25;;
12878;SDS011;20617;49.476;10.986;2022-11-20T05:28:41;26.38;;;18.90;;
12878;SDS011;20617;49.476;10.986;2022-11-20T05:30:46;21.67;;;17.00;;
12878;SDS011;20617;49.476;10.986;2022-11-20T05:32:51;24.48;;;18.77;;
12878;SDS011;20617;49.476;10.986;2022-11-20T05:34:56;24.95;;;17.63;;
12878;SDS011;20617;49.476;10.986;2022-11-20T05:37:01;22.35;;;16.27;;
12878;SDS011;20617;49.476;10.986;2022-11-20T05:39:06;21.88;;;16.48;;
12878;SDS011;20617;49.476;10.986;2022-11-20T05:41:11;23.60;;;17.20;;
12878;SDS011;20617;49.476;10.986;2022-11-20T05:43:17;21.35;;;15.98;;
12878;SDS011;20617;49.476;10.986;2022-11-20T05:45:25;22.52;;;16.73;;
12878;SDS011;20617;49.476;10.986;2022-11-20T05:47:31;19.85;;;15.70;;
12878;SDS011;20617;49.476;10.986;2022-11-20T05:49:37;22.70;;;17.23;;
12878;SDS011;20617;49.476;10.986;2022-11-20T05:51:43;22.27;;;16.73;;
12878;SDS011;20617;49.476;10.986;2022-11-20T05:53:48;19.73;;;15.40;;
12878;SDS011;20617;49.476;10.986;2022-11-20T05:55:56;23.30;;;16.00;;
12878;SDS011;20617;49.476;10.986;2022-11-20T05:58:02;25.60;;;17.77;;
12878;SDS011;20617;49.476;10.986;2022-11-20T06:00:07;22.65;;;17.33;;
12878;SDS011;20617;49.476;10.986;2022-11-20T06:02:15;21.38;;;16.50;;
12878;SDS011;20617;49.476;10.986;2022-11-20T06:04:20;23.27;;;16.95;;
12878;SDS011;20617;49.476;10.986;2022-11-20T06:06:25;20.15;;;16.25;;
12878;SDS011;20617;49.476;10.986;2022-11-20T06:08:30;22.48;;;17.35;;
12878;SDS011;20617;49.476;10.986;2022-11-20T06:10:36;22.27;;;16.58;;
12878;SDS011;20617;49.476;10.986;2022-11-20T06:12:41;21.98;;;16.38;;
12878;SDS011;20617;49.476;10.986;2022-11-20T06:14:45;21.60;;;16.00;;
12878;SDS011;20617;49.476;10.986;2022-11-20T06:16:50;22.20;;;16.73;;
12878;SDS011;20617;49.476;10.986;2022-11-20T06:18:58;23.15;;;17.27;;
12878;SDS011;20617;49.476;10.986;2022-11-20T06:21:03;24.85;;;16.75;;
12878;SDS011;20617;49.476;10.986;2022-11-20T06:23:10;21.25;;;16.33;;
12878;SDS011;20617;49.476;10.986;2022-11-20T06:25:15;21.25;;;15.55;;
12878;SDS011;20617;49.476;10.986;2022-11-20T06:27:20;22.30;;;16.35;;
12878;SDS011;20617;49.476;10.986;2022-11-20T06:29:24;22.80;;;17.75;;
12878;SDS011;20617;49.476;10.986;2022-11-20T06:31:34;25.63;;;19.13;;
12878;SDS011;20617;49.476;10.986;2022-11-20T06:33:39;22.08;;;16.33;;
12878;SDS011;20617;49.476;10.986;2022-11-20T06:35:47;21.10;;;16.27;;
12878;SDS011;20617;49.476;10.986;2022-11-20T06:37:58;22.48;;;16.70;;
12878;SDS011;20617;49.476;10.986;2022-11-20T06:40:04;21.25;;;16.30;;
12878;SDS011;20617;49.476;10.986;2022-11-20T06:42:10;21.02;;;15.45;;
12878;SDS011;20617;49.476;10.986;2022-11-20T06:44:14;24.13;;;17.15;;
12878;SDS011;20617;49.476;10.986;2022-11-20T06:46:20;25.30;;;18.52;;
12878;SDS011;20617;49.476;10.986;2022-11-20T06:48:25;26.58;;;19.52;;
12878;SDS011;20617;49.476;10.986;2022-11-20T06:50:31;25.45;;;18.38;;
12878;SDS011;20617;49.476;10.986;2022-11-20T06:52:38;22.00;;;17.15;;
12878;SDS011;20617;49.476;10.986;2022-11-20T06:54:44;22.85;;;16.42;;
12878;SDS011;20617;49.476;10.986;2022-11-20T06:56:49;22.00;;;16.17;;
12878;SDS011;20617;49.476;10.986;2022-11-20T06:58:54;20.98;;;15.77;;
12878;SDS011;20617;49.476;10.986;2022-11-20T07:00:58;20.15;;;15.30;;
12878;SDS011;20617;49.476;10.986;2022-11-20T07:03:04;19.83;;;14.68;;
12878;SDS011;20617;49.476;10.986;2022-11-20T07:05:09;19.17;;;14.50;;
12878;SDS011;20617;49.476;10.986;2022-11-20T07:07:16;20.20;;;15.05;;
12878;SDS011;20617;49.476;10.986;2022-11-20T07:09:24;19.63;;;15.30;;
12878;SDS011;20617;49.476;10.986;2022-11-20T07:11:28;21.20;;;16.42;;
12878;SDS011;20617;49.476;10.986;2022-11-20T07:13:33;20.50;;;15.77;;
12878;SDS011;20617;49.476;10.986;2022-11-20T07:15:38;21.63;;;16.23;;
12878;SDS011;20617;49.476;10.986;2022-11-20T07:17:43;19.70;;;15.30;;
12878;SDS011;20617;49.476;10.986;2022-11-20T07:19:48;19.52;;;14.52;;
12878;SDS011;20617;49.476;10.986;2022-11-20T07:21:52;21.88;;;15.90;;
12878;SDS011;20617;49.476;10.986;2022-11-20T07:23:57;21.08;;;15.45;;
12878;SDS011;20617;49.476;10.986;2022-11-20T07:26:05;19.80;;;15.38;;
12878;SDS011;20617;49.476;10.986;2022-11-20T07:28:11;19.52;;;13.88;;
12878;SDS011;20617;49.476;10.986;2022-11-20T07:30:16;19.92;;;14.32;;
12878;SDS011;20617;49.476;10.986;2022-11-20T07:32:21;19.42;;;13.98;;
12878;SDS011;20617;49.476;10.986;2022-11-20T07:34:26;21.65;;;14.68;;
12878;SDS011;20617;49.476;10.986;2022-11-20T07:36:31;19.23;;;14.55;;
12878;SDS011;20617;49.476;10.986;2022-11-20T07:38:36;18.60;;;14.52;;
12878;SDS011;20617;49.476;10.986;2022-11-20T07:40:43;17.33;;;13.20;;
12878;SDS011;20617;49.476;10.986;2022-11-20T07:42:51;15.93;;;12.45;;
12878;SDS011;20617;49.476;10.986;2022-11-20T07:44:57;20.20;;;15.32;;
12878;SDS011;20617;49.476;10.986;2022-11-20T07:47:02;20.77;;;15.88;;
12878;SDS011;20617;49.476;10.986;2022-11-20T07:49:07;21.60;;;15.10;;
12878;SDS011;20617;49.476;10.986;2022-11-20T07:51:13;22.75;;;17.52;;
12878;SDS011;20617;49.476;10.986;2022-11-20T07:53:18;21.83;;;15.85;;
12878;SDS011;20617;49.476;10.986;2022-11-20T07:55:23;22.73;;;17.30;;
12878;SDS011;20617;49.476;10.986;2022-11-20T07:57:28;27.80;;;21.48;;
12878;SDS011;20617;49.476;10.986;2022-11-20T07:59:35;22.95;;;17.92;;
12878;SDS011;20617;49.476;10.986;2022-11-20T08:01:40;28.77;;;21.65;;
12878;SDS011;20617;49.476;10.986;2022-11-20T08:03:49;23.25;;;18.08;;
12878;SDS011;20617;49.476;10.986;2022-11-20T08:05:53;21.10;;;15.38;;
12878;SDS011;20617;49.476;10.986;2022-11-20T08:07:58;17.98;;;14.07;;
12878;SDS011;20617;49.476;10.986;2022-11-20T08:10:03;18.48;;;13.88;;
12878;SDS011;20617;49.476;10.986;2022-11-20T08:12:09;20.98;;;15.23;;
12878;SDS011;20617;49.476;10.986;2022-11-20T08:14:37;20.30;;;14.93;;
12878;SDS011;20617;49.476;10.986;2022-11-20T08:16:45;19.73;;;14.77;;
12878;SDS011;20617;49.476;10.986;2022-11-20T08:18:51;23.73;;;16.80;;
12878;SDS011;20617;49.476;10.986;2022-11-20T08:20:55;21.38;;;16.27;;
12878;SDS011;20617;49.476;10.986;2022-11-20T08:23:01;21.63;;;16.17;;
12878;SDS011;20617;49.476;10.986;2022-11-20T08:25:07;20.40;;;16.00;;
12878;SDS011;20617;49.476;10.986;2022-11-20T08:27:13;22.52;;;16.88;;
12878;SDS011;20617;49.476;10.986;2022-11-20T08:29:18;21.88;;;17.02;;
12878;SDS011;20617;49.476;10.986;2022-11-20T08:33:31;20.92;;;16.13;;
12878;SDS011;20617;49.476;10.986;2022-11-20T08:35:36;23.23;;;16.70;;
12878;SDS011;20617;49.476;10.986;2022-11-20T08:37:45;22.33;;;17.30;;
12878;SDS011;20617;49.476;10.986;2022-11-20T08:39:50;22.90;;;15.82;;
12878;SDS011;20617;49.476;10.986;2022-11-20T08:41:58;19.85;;;14.75;;
12878;SDS011;20617;49.476;10.986;2022-11-20T08:44:04;19.80;;;14.45;;
12878;SDS011;20617;49.476;10.986;2022-11-20T08:46:10;20.75;;;15.25;;
12878;SDS011;20617;49.476;10.986;2022-11-20T08:48:18;19.40;;;14.20;;
12878;SDS011;20617;49.476;10.986;2022-11-20T08:50:23;20.10;;;15.73;;
12878;SDS011;20617;49.476;10.986;2022-11-20T08:52:28;24.63;;;18.00;;
12878;SDS011;20617;49.476;10.986;2022-11-20T08:54:37;25.00;;;18.30;;
12878;SDS011;20617;49.476;10.986;2022-11-20T08:56:42;25.23;;;18.13;;
12878;SDS011;20617;49.476;10.986;2022-11-20T08:58:46;22.73;;;16.42;;
12878;SDS011;20617;49.476;10.986;2022-11-20T09:01:11;22.83;;;15.85;;
12878;SDS011;20617;49.476;10.986;2022-11-20T09:03:22;19.55;;;14.45;;
12878;SDS011;20617;49.476;10.986;2022-11-20T09:05:33;21.15;;;15.93;;
12878;SDS011;20617;49.476;10.986;2022-11-20T09:07:38;22.48;;;15.20;;
12878;SDS011;20617;49.476;10.986;2022-11-20T09:09:43;37.60;;;25.95;;
12878;SDS011;20617;49.476;10.986;2022-11-20T09:12:09;25.83;;;19.23;;
12878;SDS011;20617;49.476;10.986;2022-11-20T09:14:14;24.17;;;18.15;;
12878;SDS011;20617;49.476;10.986;2022-11-20T09:16:19;22.50;;;16.10;;
12878;SDS011;20617;49.476;10.986;2022-11-20T09:18:27;21.65;;;15.32;;
12878;SDS011;20617;49.476;10.986;2022-11-20T09:20:33;19.17;;;14.02;;
12878;SDS011;20617;49.476;10.986;2022-11-20T09:22:40;19.98;;;14.82;;
12878;SDS011;20617;49.476;10.986;2022-11-20T09:24:45;20.17;;;15.13;;
12878;SDS011;20617;49.476;10.986;2022-11-20T09:28:55;21.25;;;15.85;;
12878;SDS011;20617;49.476;10.986;2022-11-20T09:31:00;19.05;;;14.52;;
12878;SDS011;20617;49.476;10.986;2022-11-20T09:33:05;19.50;;;14.90;;
12878;SDS011;20617;49.476;10.986;2022-11-20T09:35:13;20.60;;;16.05;;
12878;SDS011;20617;49.476;10.986;2022-11-20T09:37:19;20.08;;;14.93;;
12878;SDS011;20617;49.476;10.986;2022-11-20T09:39:24;20.25;;;15.68;;
12878;SDS011;20617;49.476;10.986;2022-11-20T09:41:38;19.77;;;15.13;;
12878;SDS011;20617;49.476;10.986;2022-11-20T09:43:58;19.58;;;15.60;;
12878;SDS011;20617;49.476;10.986;2022-11-20T09:46:12;19.67;;;14.20;;
12878;SDS011;20617;49.476;10.986;2022-11-20T09:48:25;26.65;;;18.73;;
12878;SDS011;20617;49.476;10.986;2022-11-20T09:50:45;28.60;;;22.83;;
12878;SDS011;20617;49.476;10.986;2022-11-20T09:52:59;27.43;;;19.93;;
12878;SDS011;20617;49.476;10.986;2022-11-20T09:55:23;27.15;;;22.15;;
12878;SDS011;20617;49.476;10.986;2022-11-20T09:57:32;29.13;;;22.85;;
12878;SDS011;20617;49.476;10.986;2022-11-20T09:59:41;26.73;;;19.33;;
12878;SDS011;20617;49.476;10.986;2022-11-20T10:01:47;24.58;;;18.67;;
12878;SDS011;20617;49.476;10.986;2022-11-20T10:03:54;27.20;;;20.50;;
12878;SDS011;20617;49.476;10.986;2022-11-20T10:06:05;20.73;;;16.85;;
12878;SDS011;20617;49.476;10.986;2022-11-20T10:08:16;22.38;;;17.38;;
12878;SDS011;20617;49.476;10.986;2022-11-20T10:10:28;21.70;;;16.42;;
12878;SDS011;20617;49.476;10.986;2022-11-20T10:12:49;24.83;;;17.63;;
12878;SDS011;20617;49.476;10.986;2022-11-20T10:15:10;82.03;;;58.97;;
12878;SDS011;20617;49.476;10.986;2022-11-20T10:17:27;69.75;;;52.45;;
12878;SDS011;20617;49.476;10.986;2022-11-20T10:19:53;32.58;;;24.98;;
12878;SDS011;20617;49.476;10.986;2022-11-20T10:22:11;30.45;;;21.15;;
12878;SDS011;20617;49.476;10.986;2022-11-20T10:24:34;30.50;;;23.85;;
12878;SDS011;20617;49.476;10.986;2022-11-20T10:26:56;26.23;;;19.23;;
12878;SDS011;20617;49.476;10.986;2022-11-20T10:29:09;24.13;;;16.90;;
12878;SDS011;20617;49.476;10.986;2022-11-20T10:31:21;26.00;;;17.95;;
12878;SDS011;20617;49.476;10.986;2022-11-20T10:33:35;22.40;;;16.73;;
12878;SDS011;20617;49.476;10.986;2022-11-20T10:36:06;21.75;;;16.15;;
12878;SDS011;20617;49.476;10.986;2022-11-20T10:38:21;22.63;;;15.73;;
12878;SDS011;20617;49.476;10.986;2022-11-20T10:40:31;20.75;;;15.43;;
12878;SDS011;20617;49.476;10.986;2022-11-20T10:42:41;24.75;;;18.20;;
12878;SDS011;20617;49.476;10.986;2022-11-20T10:44:50;21.67;;;15.98;;
12878;SDS011;20617;49.476;10.986;2022-11-20T10:47:11;25.10;;;17.17;;
12878;SDS011;20617;49.476;10.986;2022-11-20T10:49:18;24.95;;;17.52;;
12878;SDS011;20617;49.476;10.986;2022-11-20T10:51:30;23.48;;;17.20;;
12878;SDS011;20617;49.476;10.986;2022-11-20T10:53:47;26.35;;;19.55;;
12878;SDS011;20617;49.476;10.986;2022-11-20T10:56:01;31.02;;;22.58;;
12878;SDS011;20617;49.476;10.986;2022-11-20T10:58:13;29.70;;;22.48;;
12878;SDS011;20617;49.476;10.986;2022-11-20T11:00:21;30.27;;;24.00;;
12878;SDS011;20617;49.476;10.986;2022-11-20T11:02:31;29.67;;;21.95;;
12878;SDS011;20617;49.476;10.986;2022-11-20T11:04:40;25.30;;;18.65;;
12878;SDS011;20617;49.476;10.986;2022-11-20T11:06:48;27.67;;;19.30;;
12878;SDS011;20617;49.476;10.986;2022-11-20T11:11:07;27.83;;;20.35;;
12878;SDS011;20617;49.476;10.986;2022-11-20T11:13:25;31.27;;;21.63;;
12878;SDS011;20617;49.476;10.986;2022-11-20T11:15:36;30.17;;;21.38;;
12878;SDS011;20617;49.476;10.986;2022-11-20T11:17:46;27.98;;;20.83;;
12878;SDS011;20617;49.476;10.986;2022-11-20T11:19:58;31.95;;;22.63;;
12878;SDS011;20617;49.476;10.986;2022-11-20T11:22:04;26.83;;;19.63;;
12878;SDS011;20617;49.476;10.986;2022-11-20T11:26:50;22.75;;;16.95;;
12878;SDS011;20617;49.476;10.986;2022-11-20T11:29:15;23.83;;;17.30;;
12878;SDS011;20617;49.476;10.986;2022-11-20T11:31:29;21.48;;;16.27;;
12878;SDS011;20617;49.476;10.986;2022-11-20T11:33:37;21.90;;;16.70;;
12878;SDS011;20617;49.476;10.986;2022-11-20T11:35:52;22.13;;;16.13;;
12878;SDS011;20617;49.476;10.986;2022-11-20T11:38:04;18.70;;;14.15;;
12878;SDS011;20617;49.476;10.986;2022-11-20T11:40:22;18.15;;;13.77;;
12878;SDS011;20617;49.476;10.986;2022-11-20T11:42:31;19.00;;;15.00;;
12878;SDS011;20617;49.476;10.986;2022-11-20T11:44:36;21.05;;;15.95;;
12878;SDS011;20617;49.476;10.986;2022-11-20T11:46:59;24.60;;;18.70;;
12878;SDS011;20617;49.476;10.986;2022-11-20T11:49:13;30.30;;;21.83;;
12878;SDS011;20617;49.476;10.986;2022-11-20T11:51:22;28.33;;;20.70;;
12878;SDS011;20617;49.476;10.986;2022-11-20T11:53:27;22.83;;;17.85;;
12878;SDS011;20617;49.476;10.986;2022-11-20T11:55:38;28.75;;;20.45;;
12878;SDS011;20617;49.476;10.986;2022-11-20T11:57:47;23.13;;;17.00;;
12878;SDS011;20617;49.476;10.986;2022-11-20T12:00:00;22.20;;;15.57;;
12878;SDS011;20617;49.476;10.986;2022-11-20T12:02:12;25.88;;;17.30;;
12878;SDS011;20617;49.476;10.986;2022-11-20T12:04:33;27.20;;;18.40;;
12878;SDS011;20617;49.476;10.986;2022-11-20T12:06:48;25.80;;;17.95;;
12878;SDS011;20617;49.476;10.986;2022-11-20T12:08:57;54.67;;;31.15;;
12878;SDS011;20617;49.476;10.986;2022-11-20T12:11:11;49.20;;;28.35;;
12878;SDS011;20617;49.476;10.986;2022-11-20T12:13:22;38.78;;;23.23;;
12878;SDS011;20617;49.476;10.986;2022-11-20T12:15:44;57.33;;;33.28;;
12878;SDS011;20617;49.476;10.986;2022-11-20T12:17:50;67.10;;;35.53;;
12878;SDS011;20617;49.476;10.986;2022-11-20T12:19:55;63.53;;;32.83;;
12878;SDS011;20617;49.476;10.986;2022-11-20T12:22:02;64.68;;;33.13;;
12878;SDS011;20617;49.476;10.986;2022-11-20T12:24:28;89.20;;;43.92;;
12878;SDS011;20617;49.476;10.986;2022-11-20T12:26:48;56.97;;;31.17;;
12878;SDS011;20617;49.476;10.986;2022-11-20T12:29:05;37.88;;;23.40;;
12878;SDS011;20617;49.476;10.986;2022-11-20T12:31:26;32.50;;;21.45;;
12878;SDS011;20617;49.476;10.986;2022-11-20T12:33:48;39.05;;;26.27;;
12878;SDS011;20617;49.476;10.986;2022-11-20T12:36:05;32.10;;;22.70;;